Time;durP1;ratioP1;P1;durP2;ratioP2;P2;SDS_P1;SDS_P2;PMS_P1;PMS_P2;Temp;Humidity;BMP_temperature;BMP_pressure;BME280_temperature;BME280_humidity;BME280_pressure;Samples;Min_cycle;Max_cycle;Signal;HPM_P1;HPM_P2
2022/02/27 00:02:23;;;;;;;18.08;4.88;;;1.80;99.90;;;;;;6162520;23;20022;-86
2022/02/27 00:04:49;;;;;;;23.20;5.25;;;2.50;99.90;;;;;;6160867;23;20009;-85
2022/02/27 00:07:14;;;;;;;16.83;4.80;;;2.10;99.90;;;;;;6162155;23;20448;-82
2022/02/27 00:09:40;;;;;;;14.38;4.75;;;1.70;99.90;;;;;;6186364;23;20437;-88
2022/02/27 00:12:06;;;;;;;25.98;5.40;;;1.70;99.90;;;;;;6161126;23;20110;-85
2022/02/27 00:14:32;;;;;;;22.63;5.50;;;1.60;99.90;;;;;;6184180;23;20036;-86
2022/02/27 00:16:58;;;;;;;21.88;5.15;;;1.60;99.90;;;;;;6185387;23;20047;-81
2022/02/27 00:19:23;;;;;;;14.68;4.45;;;2.50;99.90;;;;;;6184869;23;20123;-84
2022/02/27 00:21:50;;;;;;;23.10;4.80;;;1.60;99.90;;;;;;6213118;23;20039;-81
2022/02/27 00:24:16;;;;;;;18.95;4.78;;;1.60;99.90;;;;;;6159734;23;20091;-85
2022/02/27 00:26:41;;;;;;;20.10;4.18;;;1.60;99.90;;;;;;6186251;23;20507;-85
2022/02/27 00:29:07;;;;;;;14.15;3.70;;;2.40;99.90;;;;;;6211801;23;20017;-85
2022/02/27 00:31:34;;;;;;;19.80;4.68;;;1.60;99.90;;;;;;6187055;23;20013;-83
2022/02/27 00:34:00;;;;;;;21.23;4.47;;;1.60;99.90;;;;;;6186839;23;20026;-81
2022/02/27 00:36:25;;;;;;;17.08;4.45;;;1.70;99.90;;;;;;6163117;23;20013;-85
2022/02/27 00:38:51;;;;;;;18.00;5.57;;;2.60;99.90;;;;;;6187877;23;20017;-82
2022/02/27 00:41:18;;;;;;;22.20;4.85;;;1.80;99.90;;;;;;6187299;23;20096;-85
2022/02/27 00:43:44;;;;;;;17.40;4.40;;;1.60;99.90;;;;;;6187026;23;20069;-83
2022/02/27 00:46:10;;;;;;;16.30;4.93;;;1.60;99.90;;;;;;6212476;23;20028;-81
2022/02/27 00:48:36;;;;;;;20.08;4.68;;;1.50;99.90;;;;;;6187172;23;20008;-86
2022/02/27 00:51:02;;;;;;;20.05;4.57;;;1.50;99.90;;;;;;6161686;23;20425;-81
2022/02/27 00:53:28;;;;;;;20.27;5.13;;;1.50;99.90;;;;;;6161860;23;20017;-83
2022/02/27 00:55:54;;;;;;;26.33;4.82;;;1.50;99.90;;;;;;6161814;23;20456;-83
2022/02/27 00:58:20;;;;;;;21.23;4.38;;;1.50;99.90;;;;;;6188381;23;20389;-82
2022/02/27 01:00:45;;;;;;;18.48;4.43;;;1.40;99.90;;;;;;6190599;23;20094;-84
2022/02/27 01:03:11;;;;;;;15.52;4.25;;;1.50;99.90;;;;;;6163792;23;20098;-81
2022/02/27 01:05:38;;;;;;;24.60;5.35;;;1.40;99.90;;;;;;6192449;23;20086;-83
2022/02/27 01:08:04;;;;;;;20.33;4.70;;;1.40;99.90;;;;;;6188875;23;20012;-84
2022/02/27 01:10:30;;;;;;;20.50;4.88;;;1.50;99.90;;;;;;6188398;23;20100;-84
2022/02/27 01:12:56;;;;;;;18.48;4.50;;;1.40;99.90;;;;;;6163402;23;20012;-81
2022/02/27 01:15:22;;;;;;;23.90;5.38;;;1.40;99.90;;;;;;6164300;23;20012;-83
2022/02/27 01:17:48;;;;;;;18.98;4.40;;;2.10;99.90;;;;;;6188601;23;20035;-82
2022/02/27 01:20:14;;;;;;;19.25;5.35;;;1.50;99.90;;;;;;6189889;23;20005;-87
2022/02/27 01:22:40;;;;;;;22.88;4.93;;;1.40;99.90;;;;;;6218939;23;20028;-86
2022/02/27 01:25:08;;;;;;;19.35;4.20;;;1.90;99.90;;;;;;6163273;23;20329;-84
2022/02/27 01:27:34;;;;;;;23.77;4.85;;;1.30;99.90;;;;;;6164243;23;20376;-88
2022/02/27 01:29:59;;;;;;;15.45;4.28;;;1.70;99.90;;;;;;6162889;23;20036;-85
2022/02/27 01:32:25;;;;;;;21.48;4.50;;;2.10;99.90;;;;;;6216588;23;20013;-81
2022/02/27 01:34:51;;;;;;;24.45;4.38;;;2.30;99.90;;;;;;6164787;23;20016;-87
2022/02/27 01:37:20;;;;;;;17.27;4.28;;;1.50;99.90;;;;;;6217699;23;20098;-82
2022/02/27 01:39:45;;;;;;;20.65;4.95;;;1.50;99.90;;;;;;6194008;23;20112;-83
2022/02/27 01:42:13;;;;;;;23.05;4.45;;;1.50;99.90;;;;;;6171586;23;20124;-82
2022/02/27 01:44:40;;;;;;;16.90;4.72;;;2.20;99.90;;;;;;6221202;23;20012;-83
2022/02/27 01:47:08;;;;;;;26.92;4.90;;;2.40;99.90;;;;;;6217106;23;20095;-82
2022/02/27 01:49:34;;;;;;;19.17;4.53;;;1.50;99.90;;;;;;6167141;23;20052;-84
2022/02/27 01:52:00;;;;;;;23.05;5.05;;;2.40;99.90;;;;;;6191500;23;20017;-85
2022/02/27 01:54:26;;;;;;;19.80;5.13;;;1.70;99.90;;;;;;6164568;23;20024;-88
2022/02/27 01:56:52;;;;;;;26.02;5.35;;;1.40;99.90;;;;;;6165595;23;20332;-89
2022/02/27 01:59:18;;;;;;;20.90;4.78;;;1.60;99.90;;;;;;6164055;23;20017;-85
2022/02/27 02:01:44;;;;;;;18.30;4.68;;;1.90;99.90;;;;;;6215723;23;20047;-81
2022/02/27 02:04:10;;;;;;;19.50;4.78;;;1.40;99.90;;;;;;6166206;23;20077;-83
2022/02/27 02:06:36;;;;;;;15.32;4.53;;;1.40;99.90;;;;;;6194185;23;20016;-83
2022/02/27 02:09:03;;;;;;;20.30;4.43;;;1.40;99.90;;;;;;6222193;23;20329;-85
2022/02/27 02:11:29;;;;;;;18.42;4.82;;;2.30;99.90;;;;;;6163395;23;20012;-84
2022/02/27 02:13:55;;;;;;;21.05;4.93;;;1.30;99.90;;;;;;6214159;23;20160;-86
2022/02/27 02:16:21;;;;;;;28.50;5.10;;;2.40;99.90;;;;;;6162733;23;20008;-85
2022/02/27 02:18:47;;;;;;;25.42;5.53;;;2.00;99.90;;;;;;6187843;23;20019;-87
2022/02/27 02:21:13;;;;;;;25.48;5.43;;;1.40;99.90;;;;;;6188033;23;20433;-88
2022/02/27 02:23:40;;;;;;;20.95;5.47;;;1.30;99.90;;;;;;6186885;23;20016;-84
2022/02/27 02:26:05;;;;;;;18.88;5.03;;;1.60;99.90;;;;;;6187810;23;20043;-85
2022/02/27 02:28:31;;;;;;;21.38;5.00;;;1.30;99.90;;;;;;6186616;23;20012;-85
2022/02/27 02:30:57;;;;;;;25.58;5.40;;;1.30;99.90;;;;;;6215162;23;20016;-85
2022/02/27 02:33:36;;;;;;;14.13;4.68;;;1.20;99.90;;;;;;6162150;23;20079;-84
2022/02/27 02:36:05;;;;;;;16.85;5.25;;;1.40;99.90;;;;;;6187702;23;20354;-86
2022/02/27 02:38:31;;;;;;;27.48;5.28;;;1.20;99.90;;;;;;6162285;23;20616;-83
2022/02/27 02:40:57;;;;;;;22.25;5.60;;;1.20;99.90;;;;;;6162360;23;20051;-85
2022/02/27 02:43:23;;;;;;;21.23;5.40;;;1.20;99.90;;;;;;6161784;23;20085;-85
2022/02/27 02:45:50;;;;;;;21.35;5.95;;;1.70;99.90;;;;;;6163243;23;20020;-87
2022/02/27 02:48:17;;;;;;;23.00;6.07;;;1.30;99.90;;;;;;6188383;23;20184;-84
2022/02/27 02:50:43;;;;;;;16.02;5.28;;;1.20;99.90;;;;;;6188033;23;20032;-82
2022/02/27 02:53:09;;;;;;;23.23;5.05;;;1.70;99.90;;;;;;6217108;23;20441;-83
2022/02/27 02:55:35;;;;;;;22.23;5.32;;;1.60;99.90;;;;;;6173669;23;20031;-82
2022/02/27 02:58:01;;;;;;;17.10;5.40;;;1.50;99.90;;;;;;6197659;23;20020;-82
2022/02/27 03:00:27;;;;;;;20.98;5.53;;;1.10;99.90;;;;;;6189305;23;20028;-82
2022/02/27 03:02:54;;;;;;;19.10;5.45;;;1.00;99.90;;;;;;6187398;23;20023;-83
2022/02/27 03:05:19;;;;;;;24.25;5.15;;;1.80;99.90;;;;;;6188234;23;20401;-90
2022/02/27 03:07:45;;;;;;;24.67;5.53;;;1.20;99.90;;;;;;6164674;23;20023;-82
2022/02/27 03:10:11;;;;;;;18.40;5.82;;;1.10;99.90;;;;;;6165838;23;20012;-82
2022/02/27 03:12:37;;;;;;;16.38;5.57;;;1.90;99.90;;;;;;6164946;23;20017;-83
2022/02/27 03:15:05;;;;;;;27.05;5.97;;;2.00;99.90;;;;;;6187963;23;20026;-83
2022/02/27 03:17:31;;;;;;;17.55;5.70;;;1.10;99.90;;;;;;6195030;23;20023;-82
2022/02/27 03:19:56;;;;;;;30.42;6.60;;;1.50;99.90;;;;;;6173292;23;20758;-80
2022/02/27 03:22:22;;;;;;;25.73;6.03;;;1.10;99.90;;;;;;6168134;23;20317;-89
2022/02/27 03:24:47;;;;;;;15.88;5.25;;;1.10;99.90;;;;;;6187409;23;20100;-85
2022/02/27 03:27:13;;;;;;;21.25;5.65;;;1.80;99.90;;;;;;6162399;23;20580;-85
2022/02/27 03:29:39;;;;;;;25.25;6.30;;;0.90;99.90;;;;;;6187093;23;20713;-83
2022/02/27 03:32:06;;;;;;;29.85;5.93;;;1.70;99.90;;;;;;6165116;23;20019;-86
2022/02/27 03:34:32;;;;;;;22.90;5.47;;;0.90;99.90;;;;;;6187885;23;20020;-86
2022/02/27 03:36:58;;;;;;;30.80;5.95;;;2.00;99.90;;;;;;6214003;23;20379;-86
2022/02/27 03:39:23;;;;;;;19.92;6.28;;;1.80;99.90;;;;;;6161590;23;20342;-87
2022/02/27 03:41:49;;;;;;;23.55;6.30;;;0.90;99.90;;;;;;6186889;23;20044;-85
2022/02/27 03:44:15;;;;;;;36.30;6.50;;;0.90;99.90;;;;;;6184564;23;20016;-84
2022/02/27 03:46:40;;;;;;;22.55;6.15;;;1.20;99.90;;;;;;6211436;23;20074;-84
2022/02/27 03:49:07;;;;;;;26.70;6.38;;;1.00;99.90;;;;;;6186752;23;20015;-86
2022/02/27 03:51:34;;;;;;;29.15;6.22;;;2.00;99.90;;;;;;6213970;23;20021;-84
2022/02/27 03:54:38;;;;;;;23.42;6.68;;;1.00;99.90;;;;;;6186555;23;20071;-83
2022/02/27 03:57:03;;;;;;;21.52;6.60;;;1.00;99.90;;;;;;6213248;23;20020;-89
2022/02/27 03:59:29;;;;;;;18.25;6.55;;;1.00;99.90;;;;;;6143581;23;20031;-87
2022/02/27 04:01:54;;;;;;;23.30;6.68;;;1.80;99.90;;;;;;6157263;23;20079;-87
2022/02/27 04:04:20;;;;;;;19.70;6.85;;;0.90;99.90;;;;;;6181668;23;20013;-84
2022/02/27 04:06:46;;;;;;;34.80;7.00;;;1.00;99.90;;;;;;6156884;23;20425;-86
2022/02/27 04:09:12;;;;;;;24.63;7.97;;;2.00;99.90;;;;;;6131192;23;20009;-85
2022/02/27 04:11:38;;;;;;;22.73;7.00;;;0.90;99.90;;;;;;6132650;23;20021;-84
2022/02/27 04:14:03;;;;;;;23.17;7.50;;;1.00;99.90;;;;;;6131361;23;20024;-86
2022/02/27 04:16:29;;;;;;;23.92;6.68;;;2.00;99.90;;;;;;6157191;23;20017;-84
2022/02/27 04:18:54;;;;;;;23.83;7.15;;;1.20;99.90;;;;;;6132275;23;20017;-86
2022/02/27 04:21:21;;;;;;;25.45;7.65;;;0.90;99.90;;;;;;6158105;23;20023;-85
2022/02/27 04:23:46;;;;;;;32.80;8.45;;;1.30;99.90;;;;;;6157401;23;20017;-87
2022/02/27 04:26:51;;;;;;;21.88;7.22;;;1.40;99.90;;;;;;6158156;23;20027;-86
2022/02/27 04:29:17;;;;;;;24.85;6.72;;;1.00;99.90;;;;;;6135960;23;20017;-82
2022/02/27 04:31:43;;;;;;;20.08;6.40;;;1.80;99.90;;;;;;6138369;23;20365;-84
2022/02/27 04:34:09;;;;;;;26.65;7.15;;;1.00;99.90;;;;;;6158881;23;20060;-85
2022/02/27 04:36:34;;;;;;;31.10;7.30;;;1.00;99.90;;;;;;6184796;23;20295;-86
2022/02/27 04:39:00;;;;;;;26.83;8.25;;;2.10;99.90;;;;;;6133095;23;20024;-83
2022/02/27 04:41:26;;;;;;;20.23;7.43;;;1.90;99.90;;;;;;6158897;23;20019;-84
2022/02/27 04:43:52;;;;;;;24.10;7.93;;;0.90;99.90;;;;;;6159516;23;20433;-83
2022/02/27 04:46:17;;;;;;;25.85;7.78;;;1.10;99.90;;;;;;6187923;23;20096;-85
2022/02/27 04:48:44;;;;;;;20.63;7.45;;;1.90;99.90;;;;;;6138764;23;20394;-82
2022/02/27 04:51:10;;;;;;;22.77;8.10;;;0.80;99.90;;;;;;6134631;23;20017;-84
2022/02/27 04:53:36;;;;;;;29.13;7.68;;;2.00;99.90;;;;;;6133641;23;20454;-85
2022/02/27 04:56:03;;;;;;;28.63;8.15;;;0.80;99.90;;;;;;6134589;23;20020;-84
2022/02/27 04:58:28;;;;;;;25.92;8.02;;;0.80;99.90;;;;;;6158394;23;20328;-85
2022/02/27 05:00:54;;;;;;;27.15;7.78;;;0.90;99.90;;;;;;6133758;23;20060;-83
2022/02/27 05:03:20;;;;;;;23.63;8.35;;;1.70;99.90;;;;;;6160026;23;20013;-84
2022/02/27 05:05:45;;;;;;;31.02;8.68;;;0.60;99.90;;;;;;6139320;23;20085;-83
2022/02/27 05:08:11;;;;;;;25.38;8.48;;;0.80;99.90;;;;;;6159358;23;20059;-86
2022/02/27 05:10:37;;;;;;;24.02;8.50;;;0.70;99.90;;;;;;6133917;23;20028;-80
2022/02/27 05:13:03;;;;;;;37.00;8.93;;;0.70;99.90;;;;;;6133218;23;20139;-86
2022/02/27 05:15:29;;;;;;;25.35;8.23;;;0.70;99.90;;;;;;6159087;23;20389;-87
2022/02/27 05:17:56;;;;;;;25.15;9.07;;;0.70;99.90;;;;;;6133713;23;20017;-80
2022/02/27 05:20:22;;;;;;;20.55;8.48;;;0.70;99.90;;;;;;6134225;23;20019;-87
2022/02/27 05:22:48;;;;;;;30.45;8.73;;;0.70;99.90;;;;;;6158995;23;20393;-89
2022/02/27 05:25:18;;;;;;;28.48;9.60;;;1.20;99.90;;;;;;6159234;23;20272;-85
2022/02/27 05:27:44;;;;;;;27.92;9.02;;;0.70;99.90;;;;;;6133625;23;20092;-82
2022/02/27 05:30:11;;;;;;;29.85;8.98;;;1.30;99.90;;;;;;6133478;23;20028;-84
2022/02/27 05:32:37;;;;;;;24.73;8.68;;;0.60;99.90;;;;;;6158986;23;20468;-87
2022/02/27 05:35:03;;;;;;;28.88;9.32;;;0.70;99.90;;;;;;6134819;23;20016;-85
2022/02/27 05:37:28;;;;;;;30.67;9.80;;;0.60;99.90;;;;;;6158753;23;20015;-88
2022/02/27 05:39:54;;;;;;;24.83;9.25;;;1.20;99.90;;;;;;6134425;23;20044;-89
2022/02/27 05:42:20;;;;;;;26.00;9.50;;;0.70;99.90;;;;;;6133859;23;20013;-86
2022/02/27 05:44:47;;;;;;;23.38;9.63;;;0.80;99.90;;;;;;6133565;23;20009;-86
2022/02/27 05:47:12;;;;;;;27.83;10.05;;;0.60;99.90;;;;;;6158691;23;20013;-83
2022/02/27 05:49:40;;;;;;;24.98;9.70;;;1.80;99.90;;;;;;6134121;23;20060;-86
2022/02/27 05:52:05;;;;;;;27.10;9.82;;;1.00;99.90;;;;;;6157952;23;20028;-84
2022/02/27 05:54:43;;;;;;;27.60;9.85;;;0.70;99.90;;;;;;6187100;23;20017;-82
2022/02/27 05:57:09;;;;;;;30.15;10.13;;;0.60;99.90;;;;;;6163159;23;20020;-85
2022/02/27 05:59:35;;;;;;;29.10;9.48;;;1.60;99.90;;;;;;6179730;23;20009;-86
2022/02/27 06:02:00;;;;;;;31.00;9.98;;;1.20;99.90;;;;;;6191622;23;20021;-87
2022/02/27 06:04:26;;;;;;;26.13;9.70;;;0.60;99.90;;;;;;6217344;23;20008;-85
2022/02/27 06:06:52;;;;;;;25.13;9.32;;;0.60;99.90;;;;;;6190892;23;20013;-85
2022/02/27 06:09:17;;;;;;;24.75;10.00;;;0.60;99.90;;;;;;6164047;23;20051;-82
2022/02/27 06:11:43;;;;;;;27.33;10.25;;;1.10;99.90;;;;;;6190263;23;20016;-87
2022/02/27 06:14:09;;;;;;;26.85;10.38;;;0.50;99.90;;;;;;6167815;23;20024;-84
2022/02/27 06:16:35;;;;;;;29.23;10.18;;;0.50;99.90;;;;;;6168059;23;20374;-83
2022/02/27 06:19:00;;;;;;;22.60;9.45;;;0.50;99.90;;;;;;6222001;23;20012;-83
2022/02/27 06:21:26;;;;;;;23.73;10.23;;;1.60;99.90;;;;;;6194920;23;20017;-89
2022/02/27 06:23:52;;;;;;;27.00;10.65;;;0.40;99.90;;;;;;6193298;23;20067;-83
2022/02/27 06:26:21;;;;;;;18.42;8.70;;;0.40;99.90;;;;;;6168982;23;20112;-83
2022/02/27 06:28:46;;;;;;;31.48;10.32;;;1.30;99.90;;;;;;6192742;23;20417;-83
2022/02/27 06:31:13;;;;;;;31.42;9.98;;;1.50;99.90;;;;;;6164720;23;20143;-89
2022/02/27 06:33:39;;;;;;;31.00;9.98;;;0.40;99.90;;;;;;6163455;23;20159;-85
2022/02/27 06:36:04;;;;;;;24.80;10.55;;;1.40;99.90;;;;;;6188634;23;20052;-86
2022/02/27 06:38:31;;;;;;;29.55;10.60;;;0.30;99.90;;;;;;6163267;23;20017;-81
2022/02/27 06:40:56;;;;;;;29.38;9.98;;;1.50;99.90;;;;;;6163436;23;20028;-86
2022/02/27 06:43:22;;;;;;;32.00;10.40;;;0.40;99.90;;;;;;6214795;23;20086;-85
2022/02/27 06:45:48;;;;;;;26.58;10.18;;;1.20;99.90;;;;;;6163627;23;20047;-86
2022/02/27 06:48:14;;;;;;;24.35;9.13;;;0.50;99.90;;;;;;6187290;23;20013;-82
2022/02/27 06:50:40;;;;;;;26.98;9.35;;;1.30;99.90;;;;;;6162971;23;20012;-82
2022/02/27 06:53:06;;;;;;;23.13;10.07;;;0.50;99.90;;;;;;6163299;23;20020;-86
2022/02/27 06:55:31;;;;;;;28.58;9.77;;;1.20;99.90;;;;;;6162276;23;20437;-84
2022/02/27 06:57:58;;;;;;;32.15;9.93;;;0.50;99.90;;;;;;6186456;23;20783;-84
2022/02/27 07:00:24;;;;;;;32.28;9.43;;;0.50;99.90;;;;;;6162708;23;20394;-85
2022/02/27 07:02:54;;;;;;;25.70;9.88;;;0.60;99.90;;;;;;6163134;23;20100;-88
2022/02/27 07:05:20;;;;;;;33.38;9.85;;;0.50;99.90;;;;;;6215111;23;20009;-83
2022/02/27 07:07:45;;;;;;;18.15;5.88;;;1.70;99.90;;;;;;6186974;23;20424;-79
2022/02/27 07:10:11;;;;;;;27.05;8.90;;;1.00;99.90;;;;;;6161291;23;20072;-82
2022/02/27 07:12:38;;;;;;;20.52;8.88;;;1.20;99.90;;;;;;6186033;23;20479;-84
2022/02/27 07:15:05;;;;;;;24.08;8.55;;;1.80;99.90;;;;;;6159886;23;20016;-84
2022/02/27 07:17:31;;;;;;;27.17;9.50;;;1.10;99.90;;;;;;6212181;23;20336;-82
2022/02/27 07:19:56;;;;;;;24.92;8.55;;;1.10;99.90;;;;;;6210221;23;20078;-86
2022/02/27 07:22:22;;;;;;;20.52;8.13;;;1.00;99.90;;;;;;6185358;23;20341;-86
2022/02/27 07:24:48;;;;;;;21.98;7.88;;;1.10;99.90;;;;;;6185552;23;20440;-84
2022/02/27 07:27:14;;;;;;;26.23;8.35;;;1.00;99.90;;;;;;6211485;23;20087;-83
2022/02/27 07:29:41;;;;;;;22.50;8.43;;;1.30;99.90;;;;;;6160791;23;20111;-82
2022/02/27 07:32:11;;;;;;;20.92;8.20;;;1.10;99.90;;;;;;6187304;23;20083;-83
2022/02/27 07:34:41;;;;;;;25.20;8.57;;;1.10;99.90;;;;;;6189896;23;20021;-82
2022/02/27 07:37:10;;;;;;;21.23;8.52;;;1.10;99.90;;;;;;6211457;23;20312;-85
2022/02/27 07:39:36;;;;;;;20.20;8.32;;;2.10;99.90;;;;;;6211206;23;20297;-85
2022/02/27 07:42:02;;;;;;;20.48;8.30;;;1.20;99.90;;;;;;6161296;23;20008;-81
2022/02/27 07:44:28;;;;;;;25.80;7.70;;;1.20;99.90;;;;;;6185095;23;20075;-81
2022/02/27 07:46:54;;;;;;;31.30;8.20;;;1.30;99.90;;;;;;6160994;23;20015;-82
2022/02/27 07:49:20;;;;;;;25.52;8.20;;;1.40;99.90;;;;;;6186336;23;20024;-82
2022/02/27 07:51:46;;;;;;;26.23;8.05;;;1.40;99.90;;;;;;6161263;23;20016;-82
2022/02/27 07:54:11;;;;;;;23.75;7.82;;;1.60;99.90;;;;;;6159930;23;20087;-83
2022/02/27 07:56:37;;;;;;;26.02;7.15;;;1.60;99.90;;;;;;6167467;23;20031;-84
2022/02/27 07:59:03;;;;;;;20.35;7.05;;;1.70;99.90;;;;;;6160349;23;20021;-84
2022/02/27 08:01:38;;;;;;;21.02;7.15;;;1.60;99.90;;;;;;6185838;23;20032;-82
2022/02/27 08:04:04;;;;;;;24.83;6.88;;;1.80;99.90;;;;;;6186068;23;20012;-85
2022/02/27 08:06:32;;;;;;;19.85;7.13;;;1.80;99.90;;;;;;6187080;23;20017;-81
2022/02/27 08:09:28;;;;;;;19.40;6.82;;;2.70;99.90;;;;;;6162078;23;20028;-83
2022/02/27 08:12:12;;;;;;;20.88;6.55;;;2.40;99.90;;;;;;6161667;23;20042;-84
2022/02/27 08:14:37;;;;;;;26.52;6.97;;;1.70;99.90;;;;;;6159002;23;20017;-83
2022/02/27 08:17:03;;;;;;;20.98;6.75;;;3.00;99.90;;;;;;6162973;23;20101;-82
2022/02/27 08:19:29;;;;;;;20.30;6.20;;;2.10;99.90;;;;;;6188192;23;20015;-83
2022/02/27 08:22:33;;;;;;;19.27;6.47;;;3.30;99.90;;;;;;6188381;23;20318;-84
2022/02/27 08:25:00;;;;;;;20.77;6.60;;;2.30;99.90;;;;;;6187633;23;20425;-83
2022/02/27 08:27:26;;;;;;;18.20;6.63;;;2.40;99.90;;;;;;6181002;23;20016;-84
2022/02/27 08:29:52;;;;;;;23.30;6.72;;;2.30;99.90;;;;;;6162236;23;20005;-83
2022/02/27 08:32:18;;;;;;;16.00;6.03;;;2.80;99.90;;;;;;6163380;23;20031;-81
2022/02/27 08:34:44;;;;;;;19.90;6.70;;;2.50;99.90;;;;;;6187673;23;20016;-82
2022/02/27 08:37:10;;;;;;;20.35;6.47;;;3.20;99.90;;;;;;6163081;23;20083;-85
2022/02/27 08:39:36;;;;;;;24.42;6.95;;;2.60;99.90;;;;;;6185987;23;20057;-84
2022/02/27 08:42:04;;;;;;;19.85;6.95;;;2.60;99.90;;;;;;6186602;23;20028;-81
2022/02/27 08:44:33;;;;;;;15.95;6.28;;;2.70;99.90;;;;;;6185532;23;20361;-81
2022/02/27 08:47:04;;;;;;;23.65;6.50;;;2.80;99.90;;;;;;6185116;23;20090;-85
2022/02/27 08:49:30;;;;;;;19.17;5.90;;;3.30;99.90;;;;;;6161096;23;20052;-86
2022/02/27 08:52:03;;;;;;;15.63;5.93;;;2.80;99.90;;;;;;6161261;23;20017;-85
2022/02/27 08:54:29;;;;;;;15.38;5.30;;;2.70;99.90;;;;;;6181859;23;20017;-83
2022/02/27 08:56:55;;;;;;;16.02;6.63;;;3.90;99.90;;;;;;6181159;23;20017;-83
2022/02/27 08:59:21;;;;;;;17.30;7.13;;;4.10;99.90;;;;;;6183835;23;20016;-83
2022/02/27 09:01:46;;;;;;;21.83;6.43;;;3.20;99.90;;;;;;6187322;23;20075;-83
2022/02/27 09:04:12;;;;;;;20.65;5.95;;;3.40;99.90;;;;;;6186302;23;20008;-85
2022/02/27 09:06:38;;;;;;;18.77;6.18;;;3.10;99.90;;;;;;6213690;23;20401;-82
2022/02/27 09:09:04;;;;;;;13.88;5.68;;;3.10;99.90;;;;;;6212967;23;20430;-81
2022/02/27 09:11:30;;;;;;;17.10;6.40;;;4.10;99.90;;;;;;6161480;23;20039;-81
2022/02/27 09:13:55;;;;;;;17.20;6.15;;;3.20;99.90;;;;;;6184783;23;20449;-84
2022/02/27 09:16:23;;;;;;;20.08;5.68;;;4.40;99.90;;;;;;6161390;23;20021;-84
2022/02/27 09:18:48;;;;;;;18.80;6.30;;;3.70;99.90;;;;;;6159220;23;20017;-85
2022/02/27 09:21:14;;;;;;;17.65;5.43;;;3.70;99.90;;;;;;6186384;23;20034;-81
2022/02/27 09:23:40;;;;;;;13.20;5.63;;;3.50;99.90;;;;;;6186322;23;20463;-78
2022/02/27 09:26:27;;;;;;;17.80;6.15;;;3.50;99.90;;;;;;6186606;23;20349;-84
2022/02/27 09:28:53;;;;;;;12.50;5.78;;;3.50;99.90;;;;;;6211811;23;20016;-80
2022/02/27 09:31:19;;;;;;;12.00;5.57;;;3.60;99.90;;;;;;6186385;23;20016;-79
2022/02/27 09:33:45;;;;;;;23.83;6.40;;;3.70;99.90;;;;;;6186165;23;20009;-80
2022/02/27 09:36:11;;;;;;;19.00;6.75;;;3.80;99.90;;;;;;6160981;23;20020;-82
2022/02/27 09:38:38;;;;;;;14.68;5.78;;;3.90;99.90;;;;;;6161397;23;20460;-82
2022/02/27 09:41:05;;;;;;;15.98;5.75;;;4.40;99.90;;;;;;6186268;23;20017;-83
2022/02/27 09:43:31;;;;;;;15.75;5.72;;;4.00;99.90;;;;;;6161221;23;20294;-86
2022/02/27 09:45:57;;;;;;;15.95;5.63;;;4.30;99.90;;;;;;6187910;23;20027;-82
2022/02/27 09:48:28;;;;;;;19.02;6.18;;;4.10;99.90;;;;;;6161885;23;20020;-86
2022/02/27 09:51:01;;;;;;;15.07;5.85;;;4.50;99.90;;;;;;6184310;23;20448;-81
2022/02/27 09:53:27;;;;;;;15.48;5.18;;;4.30;99.90;;;;;;6160225;23;20049;-82
2022/02/27 09:55:52;;;;;;;19.10;6.00;;;5.20;99.90;;;;;;6187061;23;20168;-81
2022/02/27 09:58:18;;;;;;;21.85;5.65;;;5.30;99.90;;;;;;6160698;23;20051;-82
2022/02/27 10:00:44;;;;;;;16.60;5.63;;;4.50;99.90;;;;;;6134624;23;20017;-80
2022/02/27 10:03:14;;;;;;;15.90;5.20;;;4.60;99.90;;;;;;6131631;23;20278;-79
2022/02/27 10:05:45;;;;;;;17.10;5.53;;;4.70;99.90;;;;;;6156824;23;20091;-80
2022/02/27 10:08:12;;;;;;;17.85;6.10;;;4.70;99.90;;;;;;6131157;23;20083;-79
2022/02/27 10:11:00;;;;;;;9.70;4.80;;;4.80;99.90;;;;;;6106607;23;20017;-79
2022/02/27 10:13:42;;;;;;;13.55;5.30;;;5.00;99.90;;;;;;6153903;23;20063;-80
2022/02/27 10:16:10;;;;;;;16.63;4.60;;;5.10;99.90;;;;;;6156984;23;20017;-78
2022/02/27 10:18:54;;;;;;;12.82;4.82;;;5.20;99.90;;;;;;6131360;23;20009;-81
2022/02/27 10:21:25;;;;;;;12.95;5.25;;;5.30;99.90;;;;;;6131314;23;20070;-83
2022/02/27 10:24:06;;;;;;;17.73;5.00;;;5.40;99.90;;;;;;6130521;23;20009;-80
2022/02/27 10:26:35;;;;;;;12.82;4.80;;;5.60;99.90;;;;;;6130893;23;20357;-80
2022/02/27 10:29:19;;;;;;;12.50;5.10;;;5.80;99.90;;;;;;6129928;23;20016;-81
2022/02/27 10:31:47;;;;;;;15.60;5.00;;;5.90;99.90;;;;;;6130538;23;20433;-80
2022/02/27 10:34:16;;;;;;;10.48;3.90;;;6.10;99.90;;;;;;6130431;23;20509;-79
2022/02/27 10:36:58;;;;;;;10.00;4.40;;;6.20;99.90;;;;;;6131844;23;20390;-80
2022/02/27 10:39:31;;;;;;;13.85;4.85;;;6.30;99.90;;;;;;6155649;23;20454;-82
2022/02/27 10:42:12;;;;;;;15.65;4.30;;;6.40;99.90;;;;;;6155742;23;20151;-82
2022/02/27 10:44:40;;;;;;;15.50;4.85;;;6.60;99.90;;;;;;6130036;23;20021;-80
2022/02/27 10:47:11;;;;;;;14.82;4.30;;;6.80;99.90;;;;;;6154640;23;20056;-82
2022/02/27 10:49:36;;;;;;;12.70;4.65;;;6.70;99.90;;;;;;6156698;23;20013;-78
2022/02/27 10:52:33;;;;;;;14.80;5.07;;;6.90;99.90;;;;;;6130670;23;20031;-80
2022/02/27 10:55:06;;;;;;;12.55;4.88;;;7.00;99.90;;;;;;6155107;23;20095;-80
2022/02/27 10:57:46;;;;;;;10.55;4.50;;;7.00;99.90;;;;;;6131692;23;20472;-80
2022/02/27 11:00:27;;;;;;;12.05;4.43;;;7.10;99.90;;;;;;6154300;23;20021;-79
2022/02/27 11:03:19;;;;;;;16.52;4.13;;;7.20;99.90;;;;;;6153667;23;20028;-81
2022/02/27 11:05:44;;;;;;;10.23;4.28;;;7.30;99.90;;;;;;6125136;23;20024;-80
2022/02/27 11:08:12;;;;;;;13.75;4.45;;;7.40;99.90;;;;;;6155189;23;20009;-81
2022/02/27 11:10:40;;;;;;;10.57;4.13;;;7.40;99.90;;;;;;6156028;23;20453;-80
2022/02/27 11:13:11;;;;;;;8.75;4.15;;;7.50;99.90;;;;;;6154977;23;20457;-84
2022/02/27 11:15:38;;;;;;;14.63;4.65;;;7.60;99.90;;;;;;6156866;23;20013;-81
2022/02/27 11:18:07;;;;;;;13.75;4.35;;;7.70;99.90;;;;;;6155459;23;20087;-81
2022/02/27 11:20:34;;;;;;;11.00;4.03;;;7.90;99.90;;;;;;6155987;23;20423;-82
2022/02/27 11:23:00;;;;;;;11.70;4.10;;;7.90;99.90;;;;;;6154974;23;20048;-81
2022/02/27 11:25:28;;;;;;;9.88;3.75;;;7.90;99.90;;;;;;6156320;23;20013;-80
2022/02/27 11:28:05;;;;;;;13.48;4.20;;;8.10;99.90;;;;;;6155585;23;20046;-80
2022/02/27 11:30:39;;;;;;;14.73;3.95;;;8.10;99.90;;;;;;6156663;23;20413;-83
2022/02/27 11:33:13;;;;;;;17.17;4.97;;;8.10;99.90;;;;;;6156474;23;20076;-80
2022/02/27 11:35:44;;;;;;;13.15;4.32;;;8.10;99.90;;;;;;6183607;23;20013;-80
2022/02/27 11:38:16;;;;;;;12.15;4.45;;;8.30;99.90;;;;;;6155504;23;20397;-80
2022/02/27 11:40:43;;;;;;;11.73;4.72;;;8.20;99.90;;;;;;6182939;23;20017;-80
2022/02/27 11:43:09;;;;;;;14.60;4.45;;;8.50;99.90;;;;;;6155567;23;20064;-80
2022/02/27 11:45:38;;;;;;;13.13;4.35;;;8.50;99.90;;;;;;6156840;23;20055;-82
2022/02/27 11:48:04;;;;;;;11.75;4.50;;;8.80;99.90;;;;;;6180174;23;20452;-82
2022/02/27 11:50:39;;;;;;;10.55;3.97;;;8.80;99.90;;;;;;6158252;23;20009;-80
2022/02/27 11:53:25;;;;;;;11.32;4.35;;;8.90;99.90;;;;;;6158772;23;20291;-80
2022/02/27 11:55:55;;;;;;;14.10;4.47;;;9.20;99.90;;;;;;6159189;23;20017;-80
2022/02/27 11:58:27;;;;;;;11.07;4.32;;;9.10;99.90;;;;;;6157540;23;20013;-79
2022/02/27 12:00:58;;;;;;;13.13;4.30;;;9.30;99.90;;;;;;6159312;23;20031;-80
2022/02/27 12:03:30;;;;;;;12.65;4.43;;;9.00;99.90;;;;;;6133969;23;20017;-79
2022/02/27 12:06:07;;;;;;;10.43;4.28;;;9.10;99.90;;;;;;6134498;23;20063;-83
2022/02/27 12:08:42;;;;;;;9.02;4.20;;;9.20;99.90;;;;;;6134355;23;20101;-82
2022/02/27 12:11:31;;;;;;;10.20;4.20;;;9.20;99.90;;;;;;6133611;23;20017;-82
2022/02/27 12:14:05;;;;;;;11.70;3.75;;;9.50;99.90;;;;;;6121558;23;20009;-83
2022/02/27 12:16:48;;;;;;;9.70;4.10;;;9.50;99.90;;;;;;6159032;23;20020;-81
2022/02/27 12:19:26;;;;;;;13.10;4.07;;;9.30;99.90;;;;;;6158212;23;20032;-80
2022/02/27 12:21:57;;;;;;;9.90;3.80;;;9.60;99.90;;;;;;6158861;23;20013;-82
2022/02/27 12:24:30;;;;;;;10.07;3.60;;;9.60;99.90;;;;;;6133630;23;20013;-81
2022/02/27 12:26:59;;;;;;;9.10;4.00;;;9.70;99.90;;;;;;6158784;23;20020;-82
2022/02/27 12:29:32;;;;;;;11.18;4.28;;;9.50;99.90;;;;;;6159529;23;20016;-81
2022/02/27 12:32:24;;;;;;;13.68;4.38;;;9.50;99.90;;;;;;6134834;23;20017;-80
2022/02/27 12:34:55;;;;;;;11.10;4.38;;;9.90;99.90;;;;;;6160077;23;20017;-81
2022/02/27 12:37:22;;;;;;;13.82;4.35;;;9.90;99.90;;;;;;6158532;23;20138;-81
2022/02/27 12:39:51;;;;;;;12.88;3.78;;;9.70;99.90;;;;;;6184652;23;20017;-85
2022/02/27 12:42:20;;;;;;;9.43;4.28;;;9.80;99.90;;;;;;6158556;23;20285;-82
2022/02/27 12:44:51;;;;;;;14.48;4.10;;;9.90;99.90;;;;;;6184015;23;20017;-81
2022/02/27 12:47:21;;;;;;;8.48;3.40;;;9.90;99.90;;;;;;6133851;23;20092;-81
2022/02/27 12:50:11;;;;;;;11.40;3.70;;;9.90;99.90;;;;;;6134075;23;20013;-85
2022/02/27 12:52:38;;;;;;;8.02;3.53;;;10.00;99.90;;;;;;6133297;23;20096;-81